createdAt,value
2022-11-10T00:01:16.008Z,8.96
2022-11-10T00:04:17.378Z,8.95
2022-11-10T00:07:18.808Z,8.93
2022-11-10T00:10:20.250Z,8.92
2022-11-10T00:13:21.871Z,8.91
2022-11-10T00:16:42.088Z,8.91
2022-11-10T00:19:43.445Z,8.93
2022-11-10T00:22:44.816Z,8.92
2022-11-10T00:25:46.143Z,8.93
2022-11-10T00:28:47.468Z,8.92
2022-11-10T00:31:48.829Z,8.89
2022-11-10T00:34:50.238Z,8.93
2022-11-10T00:37:51.904Z,8.92
2022-11-10T00:40:53.272Z,8.91
2022-11-10T00:43:54.594Z,8.84
2022-11-10T00:46:55.928Z,8.89
2022-11-10T00:49:57.294Z,8.85
2022-11-10T00:52:58.698Z,8.82
2022-11-10T00:56:00.030Z,8.84
2022-11-10T00:59:01.355Z,8.86
2022-11-10T01:02:02.707Z,8.85
2022-11-10T01:05:04.115Z,8.83
2022-11-10T01:08:05.509Z,8.82
2022-11-10T01:11:07.712Z,8.84
2022-11-10T01:14:09.082Z,8.84
2022-11-10T01:17:10.395Z,8.79
2022-11-10T01:20:11.747Z,8.78
2022-11-10T01:23:13.069Z,8.78
2022-11-10T01:26:14.405Z,8.80
2022-11-10T01:29:15.788Z,8.80
2022-11-10T01:32:17.162Z,8.79
2022-11-10T01:35:18.524Z,8.76
2022-11-10T01:38:19.852Z,8.70
2022-11-10T01:41:21.182Z,8.66
2022-11-10T01:44:23.339Z,8.62
2022-11-10T01:47:24.655Z,8.62
2022-11-10T01:50:26.450Z,8.64
2022-11-10T01:53:27.822Z,8.66
2022-11-10T01:56:29.981Z,8.66
2022-11-10T01:59:32.473Z,8.68
2022-11-10T02:02:42.346Z,8.67
2022-11-10T02:05:43.662Z,8.66
2022-11-10T02:08:44.982Z,8.60
2022-11-10T02:11:46.369Z,8.59
2022-11-10T02:14:47.787Z,8.57
2022-11-10T02:17:49.175Z,8.59
2022-11-10T02:20:50.633Z,8.61
2022-11-10T02:23:52.632Z,8.64
2022-11-10T02:26:54.374Z,8.66
2022-11-10T02:29:55.764Z,8.67
2022-11-10T02:32:57.234Z,8.67
2022-11-10T02:35:58.581Z,8.68
2022-11-10T02:38:59.906Z,8.64
2022-11-10T02:42:01.261Z,8.61
2022-11-10T02:45:02.663Z,8.61
2022-11-10T02:48:04.064Z,8.50
2022-11-10T02:51:05.422Z,8.52
2022-11-10T02:54:06.764Z,8.51
2022-11-10T02:57:08.544Z,8.52
2022-11-10T03:00:10.147Z,8.51
2022-11-10T03:03:11.487Z,8.47
2022-11-10T03:06:12.798Z,8.48
2022-11-10T03:09:14.124Z,8.47
2022-11-10T03:12:15.460Z,8.46
2022-11-10T03:15:16.799Z,8.42
2022-11-10T03:18:18.133Z,8.38
2022-11-10T03:21:19.600Z,8.27
2022-11-10T03:24:21.051Z,8.23
2022-11-10T03:27:22.411Z,8.22
2022-11-10T03:30:23.811Z,8.24
2022-11-10T03:33:25.407Z,8.27
2022-11-10T03:36:27.011Z,8.30
2022-11-10T03:39:28.409Z,8.30
2022-11-10T03:42:29.799Z,8.31
2022-11-10T03:45:31.436Z,8.30
2022-11-10T03:48:32.767Z,8.27
2022-11-10T03:51:34.154Z,8.24
2022-11-10T03:54:35.540Z,8.23
2022-11-10T03:57:36.850Z,8.22
2022-11-10T04:00:38.411Z,8.25
2022-11-10T04:03:39.803Z,8.26
2022-11-10T04:07:00.098Z,8.23
2022-11-10T04:10:01.584Z,8.26
2022-11-10T04:13:21.876Z,8.20
2022-11-10T04:16:23.461Z,8.19
2022-11-10T04:19:24.955Z,8.17
2022-11-10T04:22:45.081Z,8.19
2022-11-10T04:26:06.398Z,8.21
2022-11-10T04:29:10.975Z,8.20
2022-11-10T04:32:12.296Z,8.16
2022-11-10T04:35:13.625Z,8.09
2022-11-10T04:38:14.971Z,7.97
2022-11-10T04:41:16.357Z,7.91
2022-11-10T04:44:17.798Z,7.81
2022-11-10T04:47:19.134Z,7.78
2022-11-10T04:50:20.510Z,7.68
2022-11-10T04:53:22.128Z,7.64
2022-11-10T04:56:23.883Z,7.60
2022-11-10T04:59:25.228Z,7.58
2022-11-10T05:02:26.594Z,7.59
2022-11-10T05:05:27.910Z,7.66
2022-11-10T05:08:29.274Z,7.71
2022-11-10T05:11:30.623Z,7.72
2022-11-10T05:14:32.072Z,7.71
2022-11-10T05:17:33.406Z,7.65
2022-11-10T05:20:34.739Z,7.68
2022-11-10T05:23:39.269Z,7.66
2022-11-10T05:26:40.675Z,7.67
2022-11-10T05:29:42.012Z,7.68
2022-11-10T05:32:43.337Z,7.65
2022-11-10T05:35:44.669Z,7.65
2022-11-10T05:38:45.981Z,7.57
2022-11-10T05:41:47.479Z,7.48
2022-11-10T05:44:48.822Z,7.56
2022-11-10T05:47:50.133Z,7.60
2022-11-10T05:50:51.508Z,7.52
2022-11-10T05:53:52.845Z,7.45
2022-11-10T05:56:54.201Z,7.42
2022-11-10T05:59:55.581Z,7.38
2022-11-10T06:03:03.082Z,7.35
2022-11-10T06:06:04.755Z,7.27
2022-11-10T06:09:06.134Z,7.20
2022-11-10T06:12:07.632Z,7.17
2022-11-10T06:15:10.149Z,7.08
2022-11-10T06:18:11.623Z,7.12
2022-11-10T06:21:13.010Z,7.13
2022-11-10T06:24:14.409Z,7.17
2022-11-10T06:27:15.720Z,7.17
2022-11-10T06:30:17.158Z,7.18
2022-11-10T06:33:18.566Z,7.23
2022-11-10T06:36:19.978Z,7.24
2022-11-10T06:39:21.394Z,7.20
2022-11-10T06:42:22.737Z,7.18
2022-11-10T06:45:24.959Z,7.06
2022-11-10T06:48:26.384Z,7.01
2022-11-10T06:51:27.714Z,6.97
2022-11-10T06:54:29.102Z,6.97
2022-11-10T06:57:30.432Z,7.00
2022-11-10T07:00:31.845Z,7.07
2022-11-10T07:03:33.301Z,7.06
2022-11-10T07:06:34.682Z,7.10
2022-11-10T07:09:36.043Z,7.06
2022-11-10T07:12:37.362Z,7.17
2022-11-10T07:15:38.736Z,7.23
2022-11-10T07:18:40.091Z,7.23
2022-11-10T07:21:41.780Z,7.14
2022-11-10T07:24:43.334Z,7.13
2022-11-10T07:27:44.648Z,7.07
2022-11-10T07:30:45.967Z,7.05
2022-11-10T07:33:53.299Z,7.13
2022-11-10T07:36:55.776Z,7.18
2022-11-10T07:39:57.101Z,7.11
2022-11-10T07:42:58.490Z,6.89
2022-11-10T07:46:00.792Z,7.06
2022-11-10T07:49:02.172Z,7.12
2022-11-10T07:52:03.483Z,7.15
2022-11-10T07:55:05.509Z,7.11
2022-11-10T07:58:06.891Z,7.09
2022-11-10T08:01:08.248Z,7.15
2022-11-10T08:04:09.597Z,7.14
2022-11-10T08:07:10.964Z,7.11
2022-11-10T08:10:12.361Z,7.07
2022-11-10T08:13:13.973Z,7.15
2022-11-10T08:16:15.315Z,7.40
2022-11-10T08:19:16.657Z,7.46
2022-11-10T08:22:18.007Z,7.48
2022-11-10T08:25:19.388Z,7.49
2022-11-10T08:28:20.859Z,7.51
2022-11-10T08:31:22.270Z,7.62
2022-11-10T08:34:23.677Z,7.74
2022-11-10T08:37:26.218Z,7.96
2022-11-10T08:40:27.840Z,8.03
2022-11-10T08:43:29.312Z,8.17
2022-11-10T08:46:30.625Z,8.26
2022-11-10T08:49:32.040Z,8.47
2022-11-10T08:52:33.391Z,8.76
2022-11-10T08:55:34.778Z,8.76
2022-11-10T08:58:46.265Z,8.60
2022-11-10T09:01:51.722Z,8.41
2022-11-10T09:04:53.545Z,8.78
2022-11-10T09:07:54.984Z,10.04
2022-11-10T09:10:56.367Z,11.37
2022-11-10T09:13:57.732Z,11.77
2022-11-10T09:16:59.158Z,11.63
2022-11-10T09:20:00.598Z,10.01
2022-11-10T09:23:05.997Z,10.22
2022-11-10T09:26:07.596Z,10.19
2022-11-10T09:29:09.969Z,12.52
2022-11-10T09:32:11.312Z,13.38
2022-11-10T09:35:13.585Z,13.59
2022-11-10T09:38:15.072Z,13.04
2022-11-10T09:41:16.418Z,12.79
2022-11-10T09:44:24.975Z,13.27
2022-11-10T09:47:56.204Z,13.69
2022-11-10T09:50:56.716Z,14.60
2022-11-10T09:53:58.956Z,13.87
2022-11-10T09:57:00.880Z,14.71
2022-11-10T10:00:02.314Z,15.74
2022-11-10T10:03:04.359Z,15.34
2022-11-10T10:06:09.399Z,15.32
2022-11-10T10:09:16.889Z,15.85
2022-11-10T10:12:33.533Z,16.16
2022-11-10T10:15:37.869Z,16.35
2022-11-10T10:18:46.957Z,16.00
2022-11-10T10:21:48.270Z,13.11
2022-11-10T10:24:49.864Z,13.63
2022-11-10T10:27:54.304Z,15.25
2022-11-10T10:30:56.126Z,15.48
2022-11-10T10:33:57.491Z,16.04
2022-11-10T10:36:58.848Z,15.65
2022-11-10T10:40:00.193Z,15.77
2022-11-10T10:43:01.632Z,15.32
2022-11-10T10:46:03.888Z,16.12
2022-11-10T10:52:32.909Z,16.78
2022-11-10T10:55:34.723Z,17.21
2022-11-10T10:58:36.808Z,16.36
2022-11-10T11:01:38.333Z,17.08
2022-11-10T11:04:39.933Z,17.10
2022-11-10T11:07:41.473Z,17.72
2022-11-10T11:10:44.246Z,17.98
2022-11-10T11:13:45.588Z,17.67
2022-11-10T11:16:47.059Z,16.21
2022-11-10T11:19:48.628Z,15.24
2022-11-10T11:22:56.361Z,14.83
2022-11-10T11:25:59.383Z,14.46
2022-11-10T11:29:19.398Z,13.75
2022-11-10T11:32:40.246Z,13.89
2022-11-10T11:35:46.514Z,13.60
2022-11-10T11:38:52.495Z,13.16
2022-11-10T11:42:12.710Z,13.28
2022-11-10T11:45:14.029Z,13.39
2022-11-10T11:48:33.706Z,13.36
2022-11-10T11:51:35.007Z,13.34
2022-11-10T11:54:48.092Z,13.34
2022-11-10T11:57:53.758Z,13.34
2022-11-10T12:01:21.507Z,13.30
2022-11-10T12:04:31.225Z,13.24
2022-11-10T12:07:32.566Z,13.14
2022-11-10T12:10:40.608Z,13.01
2022-11-10T12:13:48.049Z,12.88
2022-11-10T12:17:10.290Z,12.84
2022-11-10T12:20:34.797Z,12.78
2022-11-10T12:23:39.130Z,12.83
2022-11-10T12:26:57.095Z,12.82
2022-11-10T12:29:59.834Z,12.88
2022-11-10T12:33:20.469Z,12.94
2022-11-10T12:36:22.122Z,12.92
2022-11-10T12:39:24.496Z,12.87
2022-11-10T12:42:26.209Z,12.92
2022-11-10T12:45:37.836Z,12.76
2022-11-10T12:48:56.085Z,12.83
2022-11-10T12:52:02.703Z,12.83
2022-11-10T12:55:04.193Z,12.87
2022-11-10T12:58:05.525Z,12.88
2022-11-10T13:01:11.778Z,12.82
2022-11-10T13:04:16.421Z,12.82
2022-11-10T13:07:17.863Z,12.89
2022-11-10T13:10:19.216Z,12.92
2022-11-10T13:13:20.615Z,12.89
2022-11-10T13:16:40.515Z,12.82
2022-11-10T13:19:48.358Z,12.72
2022-11-10T13:22:49.688Z,12.61
2022-11-10T13:25:55.052Z,12.48
2022-11-10T13:28:57.348Z,12.26
2022-11-10T13:31:59.407Z,12.24
2022-11-10T13:35:19.514Z,12.31
2022-11-10T13:38:33.011Z,12.31
2022-11-10T13:41:34.788Z,12.18
2022-11-10T13:44:39.828Z,12.13
2022-11-10T13:47:50.281Z,12.11
2022-11-10T13:51:10.509Z,12.05
2022-11-10T13:54:26.090Z,11.88
2022-11-10T13:57:40.579Z,11.65
2022-11-10T14:00:41.938Z,11.53
2022-11-10T14:03:46.347Z,11.42
2022-11-10T14:06:51.143Z,11.46
2022-11-10T14:09:52.508Z,11.42
2022-11-10T14:12:55.721Z,11.32
2022-11-10T14:15:57.060Z,11.19
2022-11-10T14:19:07.278Z,11.03
2022-11-10T14:22:27.480Z,10.92
2022-11-10T14:25:36.250Z,10.86
2022-11-10T14:28:38.120Z,10.45
2022-11-10T14:31:39.474Z,10.36
2022-11-10T14:34:47.832Z,10.33
2022-11-10T14:37:49.465Z,10.16
2022-11-10T14:40:51.007Z,10.05
2022-11-10T14:44:18.685Z,10.07
2022-11-10T14:47:24.638Z,10.02
2022-11-10T14:50:26.496Z,9.94
2022-11-10T14:53:32.355Z,9.65
2022-11-10T14:56:35.244Z,9.45
2022-11-10T14:59:36.720Z,9.39
2022-11-10T15:02:38.117Z,9.39
2022-11-10T15:05:39.504Z,9.26
2022-11-10T15:08:41.107Z,9.13
2022-11-10T15:11:49.446Z,9.06
2022-11-10T15:14:56.817Z,9.03
2022-11-10T15:17:58.178Z,8.96
2022-11-10T15:21:03.385Z,8.98
2022-11-10T15:24:04.866Z,8.94
2022-11-10T15:27:06.206Z,8.90
2022-11-10T15:30:20.072Z,8.83
2022-11-10T15:33:23.480Z,8.77
2022-11-10T15:36:34.001Z,8.70
2022-11-10T15:39:35.388Z,8.57
2022-11-10T15:42:36.772Z,8.46
2022-11-10T15:45:38.244Z,8.44
2022-11-10T15:48:43.298Z,8.33
2022-11-10T15:51:44.622Z,8.28
2022-11-10T15:54:46.008Z,8.13
2022-11-10T15:57:47.375Z,8.13
2022-11-10T16:00:48.731Z,8.06
2022-11-10T16:03:50.042Z,8.00
2022-11-10T16:06:51.448Z,7.92
2022-11-10T16:09:52.762Z,7.90
2022-11-10T16:12:54.093Z,7.79
2022-11-10T16:15:55.457Z,7.75
2022-11-10T16:18:56.792Z,7.65
2022-11-10T16:21:58.161Z,7.59
2022-11-10T16:24:59.624Z,7.50
2022-11-10T16:28:04.410Z,7.44
2022-11-10T16:31:05.743Z,7.38
2022-11-10T16:34:10.153Z,7.27
2022-11-10T16:37:12.113Z,7.24
2022-11-10T16:40:17.231Z,7.16
2022-11-10T16:43:18.587Z,7.11
2022-11-10T16:46:21.105Z,7.09
2022-11-10T16:49:25.528Z,7.04
2022-11-10T16:52:27.072Z,6.96
2022-11-10T16:55:28.396Z,6.90
2022-11-10T16:58:29.876Z,6.81
2022-11-10T17:01:31.462Z,6.72
2022-11-10T17:04:32.828Z,6.67
2022-11-10T17:07:34.310Z,6.57
2022-11-10T17:10:35.653Z,6.52
2022-11-10T17:13:37.033Z,6.49
2022-11-10T17:16:38.912Z,6.44
2022-11-10T17:19:40.246Z,6.37
2022-11-10T17:22:41.669Z,6.29
2022-11-10T17:25:43.174Z,6.26
2022-11-10T17:28:44.556Z,6.19
2022-11-10T17:31:45.920Z,6.13
2022-11-10T17:34:47.403Z,6.13
2022-11-10T17:37:49.316Z,6.08
2022-11-10T17:40:50.930Z,6.08
2022-11-10T17:43:52.310Z,6.03
2022-11-10T17:46:53.717Z,6.05
2022-11-10T17:49:55.072Z,6.03
2022-11-10T17:52:56.431Z,5.97
2022-11-10T17:55:57.777Z,5.87
2022-11-10T17:58:59.110Z,5.80
2022-11-10T18:02:01.045Z,5.80
2022-11-10T18:05:02.529Z,5.71
2022-11-10T18:08:07.426Z,5.65
2022-11-10T18:11:09.276Z,5.63
2022-11-10T18:14:10.924Z,5.60
2022-11-10T18:17:12.401Z,5.56
2022-11-10T18:20:13.789Z,5.50
2022-11-10T18:23:15.129Z,5.50
2022-11-10T18:26:16.543Z,5.50
2022-11-10T18:29:17.917Z,5.46
2022-11-10T18:32:19.254Z,5.40
2022-11-10T18:35:20.613Z,5.39
2022-11-10T18:38:22.006Z,5.44
2022-11-10T18:41:42.255Z,5.43
2022-11-10T18:44:43.690Z,5.40
2022-11-10T18:47:45.059Z,5.35
2022-11-10T18:50:46.459Z,5.27
2022-11-10T18:53:47.809Z,5.24
2022-11-10T18:56:49.294Z,5.29
2022-11-10T18:59:50.645Z,5.30
2022-11-10T19:02:52.129Z,5.18
2022-11-10T19:05:58.643Z,5.10
2022-11-10T19:09:00.166Z,5.12
2022-11-10T19:12:01.546Z,5.14
2022-11-10T19:15:02.874Z,5.12
2022-11-10T19:18:04.215Z,5.09
2022-11-10T19:21:05.624Z,5.10
2022-11-10T19:24:07.085Z,5.08
2022-11-10T19:27:08.862Z,5.06
2022-11-10T19:30:10.432Z,5.08
2022-11-10T19:33:11.760Z,5.10
2022-11-10T19:36:13.861Z,5.02
2022-11-10T19:39:15.241Z,4.93
2022-11-10T19:42:16.567Z,4.83
2022-11-10T19:45:17.955Z,4.75
2022-11-10T19:48:19.303Z,4.64
2022-11-10T19:51:22.134Z,4.63
2022-11-10T19:54:23.475Z,4.63
2022-11-10T19:57:25.141Z,4.67
2022-11-10T20:00:26.515Z,4.64
2022-11-10T20:03:30.952Z,4.59
2022-11-10T20:06:32.319Z,4.49
2022-11-10T20:09:33.816Z,4.47
2022-11-10T20:12:35.248Z,4.42
2022-11-10T20:15:40.210Z,4.46
2022-11-10T20:18:41.595Z,4.50
2022-11-10T20:21:42.991Z,4.54
2022-11-10T20:24:49.933Z,4.48
2022-11-10T20:27:52.726Z,4.40
2022-11-10T20:30:54.918Z,4.31
2022-11-10T20:33:56.609Z,4.26
2022-11-10T20:36:57.940Z,4.25
2022-11-10T20:39:59.418Z,4.22
2022-11-10T20:43:00.824Z,4.21
2022-11-10T20:46:02.432Z,4.12
2022-11-10T20:49:03.847Z,4.06
2022-11-10T20:52:05.250Z,4.08
2022-11-10T20:55:06.845Z,4.15
2022-11-10T20:58:08.328Z,4.13
2022-11-10T21:01:14.229Z,3.99
2022-11-10T21:04:15.646Z,3.94
2022-11-10T21:07:17.215Z,3.91
2022-11-10T21:10:18.572Z,3.86
2022-11-10T21:13:20.375Z,3.88
2022-11-10T21:16:21.953Z,3.87
2022-11-10T21:19:23.336Z,3.93
2022-11-10T21:22:24.682Z,3.90
2022-11-10T21:25:26.013Z,3.84
2022-11-10T21:28:27.386Z,3.76
2022-11-10T21:31:30.041Z,3.73
2022-11-10T21:34:32.932Z,3.74
2022-11-10T21:37:34.338Z,3.72
2022-11-10T21:40:35.669Z,3.65
2022-11-10T21:43:38.687Z,3.63
2022-11-10T21:46:40.011Z,3.63
2022-11-10T21:49:41.379Z,3.61
2022-11-10T21:52:42.716Z,3.58
2022-11-10T21:55:44.087Z,3.53
2022-11-10T21:58:45.442Z,3.49
2022-11-10T22:01:46.915Z,3.52
2022-11-10T22:04:48.371Z,3.54
2022-11-10T22:07:49.719Z,3.57
2022-11-10T22:11:09.838Z,3.50
2022-11-10T22:14:20.127Z,3.46
2022-11-10T22:17:40.310Z,3.43
2022-11-10T22:20:41.638Z,3.43
2022-11-10T22:24:12.553Z,3.48
2022-11-10T22:27:13.946Z,3.44
2022-11-10T22:30:15.308Z,3.47
2022-11-10T22:33:42.895Z,3.46
2022-11-10T22:36:44.277Z,3.40
2022-11-10T22:40:04.265Z,3.40
2022-11-10T22:43:24.393Z,3.41
2022-11-10T22:46:25.998Z,3.35
2022-11-10T22:49:27.321Z,3.30
2022-11-10T22:52:28.717Z,3.28
2022-11-10T22:55:30.050Z,3.27
2022-11-10T22:58:31.501Z,3.25
2022-11-10T23:01:32.977Z,3.30
2022-11-10T23:04:34.351Z,3.23
2022-11-10T23:07:35.723Z,3.21
2022-11-10T23:10:37.065Z,3.14
2022-11-10T23:13:38.521Z,3.10
2022-11-10T23:16:39.855Z,3.14
2022-11-10T23:19:41.193Z,3.14
2022-11-10T23:22:42.547Z,3.08
2022-11-10T23:25:43.911Z,3.09
2022-11-10T23:28:45.338Z,3.13
2022-11-10T23:31:46.663Z,3.11
2022-11-10T23:34:48.058Z,3.08
2022-11-10T23:37:49.435Z,3.07
2022-11-10T23:40:57.388Z,3.01
2022-11-10T23:43:58.766Z,2.93
2022-11-10T23:47:00.172Z,2.92
2022-11-10T23:50:01.512Z,2.90
2022-11-10T23:53:02.870Z,2.88
2022-11-10T23:56:05.641Z,2.86
2022-11-10T23:59:06.967Z,2.82
